Ponce, PR

7:31 PM AST on September 01, 2014 (GMT -0400)
Rafael Hernandez | Change Station
CLOSE
Current Station
Airport
Location: Aquadilla,
Elevation: 236 ft
Nearby Weather Stations

Elev 236 ft 18.49 °N, 67.13 °W | Updated 41 minutes ago

Overcast
Overcast
79 °F
Feels Like 79 °F
N
4
Wind Variable Wind from SE

Today
High -- | Low -- °F
--% Chance of Precip.
Yesterday
High -- | Low -- °F
Precip. -- in
6:12 AM 6:40 PM
Waxing Crescent, 45% visible
Pressure 29.99 in
Visibility 10.0 miles
Clouds Scattered Clouds 3900 ft
Mostly Cloudy 5500 ft
Overcast 7500 ft
Dew Point 73 °F
Humidity 83%
Rainfall 0.00 in
Snow Depth Not available.
UV 0 out of 12
Pollen Not available.
Air Quality Not available.
Flu Activity Not available.
METAR TJBQ 012250Z 14003KT 10SM SCT039 BKN055 OVC075 26/23 A2999 RMK LTG VC AND DSNT E--RWY08 ATIS Z

More Conditions Fewer Conditions

Pressure 29.99 in
Visibility 10.0 miles
Clouds Scattered Clouds 3900 ft
Mostly Cloudy 5500 ft
Overcast 7500 ft
Dew Point 73 °F
Humidity 83%
Rainfall 0.00 in
Snow Depth Not available.
UV 0 out of 12
Pollen Not available.
Air Quality Not available.
Flu Activity Not available.
METAR TJBQ 012250Z 14003KT 10SM SCT039 BKN055 OVC075 26/23 A2999 RMK LTG VC AND DSNT E--RWY08 ATIS Z

More Conditions Fewer Conditions

10-Day Weather Forecast

Almanac

Astronomy

Sep. 01, 2014 Rise Set
Actual Time 6:12 AM AST 6:40 PM AST
Civil Twilight 5:50 AM AST 7:02 PM AST
Nautical Twilight 5:24 AM AST 7:28 PM AST
Astronomical Twilight 4:58 AM AST 7:54 PM AST
Moon 11:58 AM AST 11:35 PM AST
Length of Visible Light 13h 12m
Length of Day
12h 28m
Tomorrow will be 0m 58s shorter.
Waxing Crescent, 45% of the Moon is Illuminated
Today
Waxing Crescent
Sep 2
First Quarter
Sep 8
Full
Sep 15
Last Quarter
Sep 24
New

Community

WunderPhotos

Upload Photos

1,749,440 photos uploaded!

Nearby

Snow Depth

Station Depth Elevation
No new snow has been reported.

Earthquake Activity

City Distance Mag. Time & Date
No recent earthquake activity has been reported nearby.
Minimum magnitude displayed is 2.5.

Coastal Water Temperatures

Place Temperature
Magueyes Islands, PR 84.9 °F
Yabucoa Harbor, PR 84.9 °F

Nearby Weather Stations